sensor_id;sensor_type;location;lat;lon;timestamp;pressure;altitude;pressure_sealevel;temperature;humidity
15998;BME280;8103;51.340;12.326;2023-04-28T00:02:02;100503.53;;;9.63;50.24
15998;BME280;8103;51.340;12.326;2023-04-28T00:08:29;100493.09;;;9.50;50.77
15998;BME280;8103;51.340;12.326;2023-04-28T00:10:56;100490.31;;;9.45;50.68
15998;BME280;8103;51.340;12.326;2023-04-28T00:13:23;100490.78;;;9.42;50.90
15998;BME280;8103;51.340;12.326;2023-04-28T00:15:50;100488.00;;;9.37;51.41
15998;BME280;8103;51.340;12.326;2023-04-28T00:18:19;100489.31;;;9.35;51.20
15998;BME280;8103;51.340;12.326;2023-04-28T00:20:47;100487.91;;;9.32;51.36
15998;BME280;8103;51.340;12.326;2023-04-28T00:23:14;100480.91;;;9.31;51.50
15998;BME280;8103;51.340;12.326;2023-04-28T00:25:42;100473.38;;;9.28;51.43
15998;BME280;8103;51.340;12.326;2023-04-28T00:28:11;100471.75;;;9.27;51.47
15998;BME280;8103;51.340;12.326;2023-04-28T00:30:41;100466.63;;;9.26;51.88
15998;BME280;8103;51.340;12.326;2023-04-28T00:33:08;100465.03;;;9.25;51.81
15998;BME280;8103;51.340;12.326;2023-04-28T00:35:35;100463.88;;;9.21;52.15
15998;BME280;8103;51.340;12.326;2023-04-28T00:38:02;100461.31;;;9.14;52.56
15998;BME280;8103;51.340;12.326;2023-04-28T00:40:33;100456.44;;;9.11;52.25
15998;BME280;8103;51.340;12.326;2023-04-28T00:43:00;100455.84;;;9.09;52.69
15998;BME280;8103;51.340;12.326;2023-04-28T00:45:28;100444.59;;;9.07;52.74
15998;BME280;8103;51.340;12.326;2023-04-28T00:47:56;100451.00;;;9.06;53.00
15998;BME280;8103;51.340;12.326;2023-04-28T00:50:25;100443.44;;;9.03;53.24
15998;BME280;8103;51.340;12.326;2023-04-28T00:52:52;100449.25;;;9.00;53.04
15998;BME280;8103;51.340;12.326;2023-04-28T00:55:19;100447.63;;;8.99;53.38
15998;BME280;8103;51.340;12.326;2023-04-28T00:57:47;100448.22;;;9.01;53.34
15998;BME280;8103;51.340;12.326;2023-04-28T01:00:17;100450.06;;;9.01;53.62
15998;BME280;8103;51.340;12.326;2023-04-28T01:02:44;100439.72;;;9.04;53.65
15998;BME280;8103;51.340;12.326;2023-04-28T01:05:12;100439.13;;;9.02;53.64
15998;BME280;8103;51.340;12.326;2023-04-28T01:07:40;100437.75;;;9.00;53.67
15998;BME280;8103;51.340;12.326;2023-04-28T01:10:07;100431.56;;;8.99;53.63
15998;BME280;8103;51.340;12.326;2023-04-28T01:12:34;100429.72;;;9.00;53.69
15998;BME280;8103;51.340;12.326;2023-04-28T01:15:02;100431.34;;;9.01;53.71
15998;BME280;8103;51.340;12.326;2023-04-28T01:17:29;100431.09;;;9.02;53.66
15998;BME280;8103;51.340;12.326;2023-04-28T01:19:56;100426.94;;;9.06;53.89
15998;BME280;8103;51.340;12.326;2023-04-28T01:22:23;100425.16;;;9.12;53.51
15998;BME280;8103;51.340;12.326;2023-04-28T01:24:49;100426.78;;;9.13;53.80
15998;BME280;8103;51.340;12.326;2023-04-28T01:27:16;100415.38;;;9.17;53.64
15998;BME280;8103;51.340;12.326;2023-04-28T01:29:43;100411.16;;;9.21;53.43
15998;BME280;8103;51.340;12.326;2023-04-28T01:32:10;100412.22;;;9.20;53.27
15998;BME280;8103;51.340;12.326;2023-04-28T01:34:37;100404.78;;;9.22;53.32
15998;BME280;8103;51.340;12.326;2023-04-28T01:37:04;100412.34;;;9.25;53.39
15998;BME280;8103;51.340;12.326;2023-04-28T01:39:31;100409.16;;;9.28;53.28
15998;BME280;8103;51.340;12.326;2023-04-28T01:41:57;100411.47;;;9.36;52.84
15998;BME280;8103;51.340;12.326;2023-04-28T01:44:25;100406.00;;;9.43;53.02
15998;BME280;8103;51.340;12.326;2023-04-28T01:46:52;100402.59;;;9.47;52.52
15998;BME280;8103;51.340;12.326;2023-04-28T01:49:19;100397.25;;;9.47;52.65
15998;BME280;8103;51.340;12.326;2023-04-28T01:51:46;100391.91;;;9.47;52.67
15998;BME280;8103;51.340;12.326;2023-04-28T01:54:13;100395.59;;;9.46;52.53
15998;BME280;8103;51.340;12.326;2023-04-28T01:56:40;100388.63;;;9.45;52.87
15998;BME280;8103;51.340;12.326;2023-04-28T01:59:07;100393.09;;;9.40;52.92
15998;BME280;8103;51.340;12.326;2023-04-28T02:01:34;100387.50;;;9.41;52.80
15998;BME280;8103;51.340;12.326;2023-04-28T02:04:01;100390.97;;;9.42;52.52
15998;BME280;8103;51.340;12.326;2023-04-28T02:06:28;100378.41;;;9.42;52.53
15998;BME280;8103;51.340;12.326;2023-04-28T02:08:56;100378.41;;;9.42;52.71
15998;BME280;8103;51.340;12.326;2023-04-28T02:11:22;100372.00;;;9.43;52.70
15998;BME280;8103;51.340;12.326;2023-04-28T02:13:50;100371.91;;;9.38;52.56
15998;BME280;8103;51.340;12.326;2023-04-28T02:16:17;100370.28;;;9.37;53.14
15998;BME280;8103;51.340;12.326;2023-04-28T02:18:44;100377.75;;;9.35;52.75
15998;BME280;8103;51.340;12.326;2023-04-28T02:21:11;100373.91;;;9.31;52.77
15998;BME280;8103;51.340;12.326;2023-04-28T02:23:39;100361.94;;;9.34;53.29
15998;BME280;8103;51.340;12.326;2023-04-28T02:26:06;100366.47;;;9.33;52.84
15998;BME280;8103;51.340;12.326;2023-04-28T02:28:33;100365.50;;;9.39;52.73
15998;BME280;8103;51.340;12.326;2023-04-28T02:31:08;100353.75;;;9.40;53.00
15998;BME280;8103;51.340;12.326;2023-04-28T02:33:36;100345.94;;;9.39;53.01
15998;BME280;8103;51.340;12.326;2023-04-28T02:36:04;100343.84;;;9.41;52.60
15998;BME280;8103;51.340;12.326;2023-04-28T02:38:31;100340.94;;;9.42;52.92
15998;BME280;8103;51.340;12.326;2023-04-28T02:41:00;100340.38;;;9.40;52.77
15998;BME280;8103;51.340;12.326;2023-04-28T02:43:28;100340.13;;;9.42;52.54
15998;BME280;8103;51.340;12.326;2023-04-28T02:45:55;100344.69;;;9.41;52.92
15998;BME280;8103;51.340;12.326;2023-04-28T02:48:26;100341.41;;;9.39;53.00
15998;BME280;8103;51.340;12.326;2023-04-28T02:50:53;100335.72;;;9.36;52.82
15998;BME280;8103;51.340;12.326;2023-04-28T02:53:21;100342.25;;;9.40;52.84
15998;BME280;8103;51.340;12.326;2023-04-28T02:55:48;100337.69;;;9.40;52.89
15998;BME280;8103;51.340;12.326;2023-04-28T02:58:15;100342.78;;;9.42;52.80
15998;BME280;8103;51.340;12.326;2023-04-28T03:00:43;100344.69;;;9.41;52.61
15998;BME280;8103;51.340;12.326;2023-04-28T03:03:11;100331.84;;;9.43;52.56
15998;BME280;8103;51.340;12.326;2023-04-28T03:05:38;100335.13;;;9.45;52.44
15998;BME280;8103;51.340;12.326;2023-04-28T03:08:05;100338.38;;;9.47;52.42
15998;BME280;8103;51.340;12.326;2023-04-28T03:10:32;100336.25;;;9.49;52.61
15998;BME280;8103;51.340;12.326;2023-04-28T03:12:59;100323.44;;;9.51;52.07
15998;BME280;8103;51.340;12.326;2023-04-28T03:15:26;100319.72;;;9.52;52.42
15998;BME280;8103;51.340;12.326;2023-04-28T03:17:53;100309.81;;;9.53;52.16
15998;BME280;8103;51.340;12.326;2023-04-28T03:20:20;100325.63;;;9.54;52.01
15998;BME280;8103;51.340;12.326;2023-04-28T03:22:46;100319.81;;;9.57;52.54
15998;BME280;8103;51.340;12.326;2023-04-28T03:25:13;100308.28;;;9.57;52.61
15998;BME280;8103;51.340;12.326;2023-04-28T03:27:40;100306.41;;;9.57;52.43
15998;BME280;8103;51.340;12.326;2023-04-28T03:30:08;100294.66;;;9.58;52.70
15998;BME280;8103;51.340;12.326;2023-04-28T03:32:36;100295.13;;;9.55;52.62
15998;BME280;8103;51.340;12.326;2023-04-28T03:35:04;100292.47;;;9.55;52.51
15998;BME280;8103;51.340;12.326;2023-04-28T03:37:30;100290.84;;;9.54;52.79
15998;BME280;8103;51.340;12.326;2023-04-28T03:39:57;100285.50;;;9.54;52.54
15998;BME280;8103;51.340;12.326;2023-04-28T03:42:24;100285.50;;;9.54;52.94
15998;BME280;8103;51.340;12.326;2023-04-28T03:44:52;100279.81;;;9.51;53.10
15998;BME280;8103;51.340;12.326;2023-04-28T03:47:19;100279.22;;;9.49;53.06
15998;BME280;8103;51.340;12.326;2023-04-28T03:49:45;100270.41;;;9.48;53.22
15998;BME280;8103;51.340;12.326;2023-04-28T03:52:14;100261.31;;;9.49;53.36
15998;BME280;8103;51.340;12.326;2023-04-28T03:54:41;100270.06;;;9.45;53.51
15998;BME280;8103;51.340;12.326;2023-04-28T03:57:11;100265.44;;;9.40;53.35
15998;BME280;8103;51.340;12.326;2023-04-28T03:59:38;100266.41;;;9.34;53.31
15998;BME280;8103;51.340;12.326;2023-04-28T04:02:08;100258.06;;;9.31;54.02
15998;BME280;8103;51.340;12.326;2023-04-28T04:04:35;100263.56;;;9.24;54.06
15998;BME280;8103;51.340;12.326;2023-04-28T04:07:02;100261.94;;;9.23;53.95
15998;BME280;8103;51.340;12.326;2023-04-28T04:09:30;100251.84;;;9.25;54.14
15998;BME280;8103;51.340;12.326;2023-04-28T04:11:57;100256.13;;;9.26;54.15
15998;BME280;8103;51.340;12.326;2023-04-28T04:14:25;100254.09;;;9.33;53.78
15998;BME280;8103;51.340;12.326;2023-04-28T04:16:54;100253.69;;;9.41;53.25
15998;BME280;8103;51.340;12.326;2023-04-28T04:19:21;100255.31;;;9.42;53.51
15998;BME280;8103;51.340;12.326;2023-04-28T04:21:49;100256.44;;;9.46;53.43
15998;BME280;8103;51.340;12.326;2023-04-28T04:24:17;100245.84;;;9.51;53.54
15998;BME280;8103;51.340;12.326;2023-04-28T04:26:44;100247.19;;;9.54;53.05
15998;BME280;8103;51.340;12.326;2023-04-28T04:29:11;100247.06;;;9.60;53.47
15998;BME280;8103;51.340;12.326;2023-04-28T04:31:38;100241.75;;;9.65;52.96
15998;BME280;8103;51.340;12.326;2023-04-28T04:34:05;100245.66;;;9.74;53.04
15998;BME280;8103;51.340;12.326;2023-04-28T04:36:32;100236.31;;;9.77;53.44
15998;BME280;8103;51.340;12.326;2023-04-28T04:38:59;100235.28;;;9.78;52.89
15998;BME280;8103;51.340;12.326;2023-04-28T04:41:26;100222.69;;;9.78;53.42
15998;BME280;8103;51.340;12.326;2023-04-28T04:43:53;100224.31;;;9.79;53.32
15998;BME280;8103;51.340;12.326;2023-04-28T04:46:20;100228.59;;;9.80;52.78
15998;BME280;8103;51.340;12.326;2023-04-28T04:48:47;100222.19;;;9.81;52.80
15998;BME280;8103;51.340;12.326;2023-04-28T04:51:14;100211.31;;;9.88;52.95
15998;BME280;8103;51.340;12.326;2023-04-28T04:53:41;100221.03;;;9.94;52.63
15998;BME280;8103;51.340;12.326;2023-04-28T04:56:09;100221.03;;;9.94;52.74
15998;BME280;8103;51.340;12.326;2023-04-28T04:58:36;100222.41;;;9.96;52.15
15998;BME280;8103;51.340;12.326;2023-04-28T05:01:03;100223.13;;;10.08;52.33
15998;BME280;8103;51.340;12.326;2023-04-28T05:03:31;100224.13;;;10.24;52.41
15998;BME280;8103;51.340;12.326;2023-04-28T05:05:58;100221.91;;;10.37;51.89
15998;BME280;8103;51.340;12.326;2023-04-28T05:08:25;100214.53;;;10.49;52.48
15998;BME280;8103;51.340;12.326;2023-04-28T05:10:52;100211.41;;;10.57;51.88
15998;BME280;8103;51.340;12.326;2023-04-28T05:13:19;100211.50;;;10.67;51.36
15998;BME280;8103;51.340;12.326;2023-04-28T05:15:46;100204.34;;;10.73;51.63
15998;BME280;8103;51.340;12.326;2023-04-28T05:18:13;100211.91;;;10.81;50.92
15998;BME280;8103;51.340;12.326;2023-04-28T05:20:40;100209.59;;;10.90;50.95
15998;BME280;8103;51.340;12.326;2023-04-28T05:23:07;100214.75;;;10.96;50.68
15998;BME280;8103;51.340;12.326;2023-04-28T05:29:35;100205.03;;;11.17;50.25
15998;BME280;8103;51.340;12.326;2023-04-28T05:32:02;100204.28;;;11.26;50.73
15998;BME280;8103;51.340;12.326;2023-04-28T05:38:31;100199.28;;;11.40;49.15
15998;BME280;8103;51.340;12.326;2023-04-28T05:41:01;100192.38;;;11.49;49.52
15998;BME280;8103;51.340;12.326;2023-04-28T05:43:31;100191.16;;;11.61;48.98
15998;BME280;8103;51.340;12.326;2023-04-28T05:45:58;100188.56;;;11.71;48.89
15998;BME280;8103;51.340;12.326;2023-04-28T05:52:32;100191.22;;;12.18;50.08
15998;BME280;8103;51.340;12.326;2023-04-28T05:55:02;100185.56;;;12.24;49.10
15998;BME280;8103;51.340;12.326;2023-04-28T06:01:36;100178.13;;;12.46;48.58
15998;BME280;8103;51.340;12.326;2023-04-28T06:04:04;100178.44;;;12.60;48.29
15998;BME280;8103;51.340;12.326;2023-04-28T06:10:38;100176.00;;;12.58;47.97
15998;BME280;8103;51.340;12.326;2023-04-28T06:13:08;100188.13;;;12.66;47.49
15998;BME280;8103;51.340;12.326;2023-04-28T06:15:36;100178.47;;;12.70;47.59
15998;BME280;8103;51.340;12.326;2023-04-28T06:18:03;100171.75;;;12.72;47.36
15998;BME280;8103;51.340;12.326;2023-04-28T06:20:33;100181.72;;;12.82;47.38
15998;BME280;8103;51.340;12.326;2023-04-28T06:23:01;100180.13;;;12.91;47.69
15998;BME280;8103;51.340;12.326;2023-04-28T06:25:29;100173.16;;;13.20;46.62
15998;BME280;8103;51.340;12.326;2023-04-28T06:27:56;100173.69;;;13.47;45.66
15998;BME280;8103;51.340;12.326;2023-04-28T06:30:23;100173.66;;;13.67;45.02
15998;BME280;8103;51.340;12.326;2023-04-28T06:32:50;100163.91;;;13.91;44.30
15998;BME280;8103;51.340;12.326;2023-04-28T06:35:17;100164.97;;;13.95;43.96
15998;BME280;8103;51.340;12.326;2023-04-28T06:37:45;100169.81;;;13.98;43.70
15998;BME280;8103;51.340;12.326;2023-04-28T06:40:12;100167.66;;;14.00;43.76
15998;BME280;8103;51.340;12.326;2023-04-28T06:42:39;100167.34;;;14.02;43.53
15998;BME280;8103;51.340;12.326;2023-04-28T06:45:07;100162.75;;;14.07;43.54
15998;BME280;8103;51.340;12.326;2023-04-28T06:47:35;100157.59;;;14.21;43.07
15998;BME280;8103;51.340;12.326;2023-04-28T06:50:03;100158.34;;;14.31;42.91
15998;BME280;8103;51.340;12.326;2023-04-28T06:52:33;100154.03;;;14.35;42.97
15998;BME280;8103;51.340;12.326;2023-04-28T06:55:07;100155.84;;;14.50;42.85
15998;BME280;8103;51.340;12.326;2023-04-28T06:57:36;100152.00;;;14.61;42.76
15998;BME280;8103;51.340;12.326;2023-04-28T07:00:09;100146.22;;;14.77;42.10
15998;BME280;8103;51.340;12.326;2023-04-28T07:02:38;100140.50;;;14.84;42.37
15998;BME280;8103;51.340;12.326;2023-04-28T07:05:11;100138.94;;;15.12;42.05
15998;BME280;8103;51.340;12.326;2023-04-28T07:07:55;100135.59;;;15.25;41.60
15998;BME280;8103;51.340;12.326;2023-04-28T07:10:23;100139.88;;;15.31;41.48
15998;BME280;8103;51.340;12.326;2023-04-28T07:12:50;100137.53;;;15.19;41.48
15998;BME280;8103;51.340;12.326;2023-04-28T07:15:20;100136.16;;;15.22;41.61
15998;BME280;8103;51.340;12.326;2023-04-28T07:17:47;100135.78;;;15.38;41.39
15998;BME280;8103;51.340;12.326;2023-04-28T07:20:14;100130.03;;;15.45;41.37
15998;BME280;8103;51.340;12.326;2023-04-28T07:22:41;100129.91;;;15.55;41.19
15998;BME280;8103;51.340;12.326;2023-04-28T07:25:09;100127.84;;;15.47;41.30
15998;BME280;8103;51.340;12.326;2023-04-28T07:27:36;100133.34;;;15.60;41.34
15998;BME280;8103;51.340;12.326;2023-04-28T07:30:09;100121.06;;;15.73;41.15
15998;BME280;8103;51.340;12.326;2023-04-28T07:32:51;100121.97;;;15.87;41.06
15998;BME280;8103;51.340;12.326;2023-04-28T07:35:19;100124.69;;;15.87;40.79
15998;BME280;8103;51.340;12.326;2023-04-28T07:37:46;100128.53;;;15.81;41.28
15998;BME280;8103;51.340;12.326;2023-04-28T07:40:15;100135.16;;;15.93;40.88
15998;BME280;8103;51.340;12.326;2023-04-28T07:42:42;100136.31;;;16.11;40.81
15998;BME280;8103;51.340;12.326;2023-04-28T07:45:10;100138.31;;;16.24;40.50
15998;BME280;8103;51.340;12.326;2023-04-28T07:47:37;100115.16;;;16.36;40.50
15998;BME280;8103;51.340;12.326;2023-04-28T07:50:05;100121.75;;;16.67;40.31
15998;BME280;8103;51.340;12.326;2023-04-28T07:52:33;100122.22;;;16.88;39.88
15998;BME280;8103;51.340;12.326;2023-04-28T07:55:01;100117.75;;;17.16;39.46
15998;BME280;8103;51.340;12.326;2023-04-28T07:57:30;100118.94;;;17.55;38.90
15998;BME280;8103;51.340;12.326;2023-04-28T07:59:57;100118.25;;;17.90;37.92
15998;BME280;8103;51.340;12.326;2023-04-28T08:02:24;100109.31;;;18.03;38.08
15998;BME280;8103;51.340;12.326;2023-04-28T08:08:59;100114.09;;;18.20;37.41
15998;BME280;8103;51.340;12.326;2023-04-28T08:11:28;100114.00;;;18.25;37.79
15998;BME280;8103;51.340;12.326;2023-04-28T08:13:56;100101.53;;;18.37;37.56
15998;BME280;8103;51.340;12.326;2023-04-28T08:16:29;100101.94;;;18.44;37.54
15998;BME280;8103;51.340;12.326;2023-04-28T08:19:03;100106.97;;;18.10;36.92
15998;BME280;8103;51.340;12.326;2023-04-28T08:21:30;100120.75;;;17.73;38.04
15998;BME280;8103;51.340;12.326;2023-04-28T08:23:58;100114.81;;;17.44;38.68
15998;BME280;8103;51.340;12.326;2023-04-28T08:26:25;100115.38;;;17.41;39.27
15998;BME280;8103;51.340;12.326;2023-04-28T08:28:52;100110.22;;;17.26;40.11
15998;BME280;8103;51.340;12.326;2023-04-28T08:31:19;100111.09;;;17.08;40.48
15998;BME280;8103;51.340;12.326;2023-04-28T08:33:49;100107.13;;;16.68;40.63
15998;BME280;8103;51.340;12.326;2023-04-28T08:36:17;100106.28;;;16.31;40.90
15998;BME280;8103;51.340;12.326;2023-04-28T08:42:44;100119.00;;;15.65;42.70
15998;BME280;8103;51.340;12.326;2023-04-28T08:45:15;100119.75;;;15.70;43.15
15998;BME280;8103;51.340;12.326;2023-04-28T08:51:55;100125.16;;;16.36;43.81
15998;BME280;8103;51.340;12.326;2023-04-28T08:54:30;100116.28;;;16.54;44.01
15998;BME280;8103;51.340;12.326;2023-04-28T08:57:02;100121.09;;;16.57;45.31
15998;BME280;8103;51.340;12.326;2023-04-28T08:59:31;100127.16;;;16.49;45.30
15998;BME280;8103;51.340;12.326;2023-04-28T09:01:58;100134.97;;;16.32;45.59
15998;BME280;8103;51.340;12.326;2023-04-28T09:04:26;100131.44;;;15.66;46.55
15998;BME280;8103;51.340;12.326;2023-04-28T09:06:53;100122.72;;;15.45;47.95
15998;BME280;8103;51.340;12.326;2023-04-28T09:09:23;100121.16;;;15.39;48.63
15998;BME280;8103;51.340;12.326;2023-04-28T09:12:02;100125.19;;;15.42;48.90
15998;BME280;8103;51.340;12.326;2023-04-28T09:14:36;100115.47;;;15.36;52.22
15998;BME280;8103;51.340;12.326;2023-04-28T09:17:12;100116.44;;;14.93;55.90
15998;BME280;8103;51.340;12.326;2023-04-28T09:19:42;100115.91;;;14.85;58.39
15998;BME280;8103;51.340;12.326;2023-04-28T09:22:10;100113.50;;;15.18;57.70
15998;BME280;8103;51.340;12.326;2023-04-28T09:24:54;100121.59;;;15.51;58.11
15998;BME280;8103;51.340;12.326;2023-04-28T09:27:28;100115.22;;;15.66;57.32
15998;BME280;8103;51.340;12.326;2023-04-28T09:29:55;100111.44;;;15.85;56.43
15998;BME280;8103;51.340;12.326;2023-04-28T09:32:24;100111.44;;;16.09;54.06
15998;BME280;8103;51.340;12.326;2023-04-28T09:34:54;100109.50;;;16.33;53.82
15998;BME280;8103;51.340;12.326;2023-04-28T09:37:28;100110.63;;;16.50;53.17
15998;BME280;8103;51.340;12.326;2023-04-28T09:40:07;100116.94;;;16.41;53.18
15998;BME280;8103;51.340;12.326;2023-04-28T09:42:37;100108.34;;;16.39;53.42
15998;BME280;8103;51.340;12.326;2023-04-28T09:45:06;100108.59;;;16.19;53.49
15998;BME280;8103;51.340;12.326;2023-04-28T09:47:37;100111.63;;;16.17;54.04
15998;BME280;8103;51.340;12.326;2023-04-28T09:50:07;100112.44;;;15.94;54.93
15998;BME280;8103;51.340;12.326;2023-04-28T09:52:45;100110.72;;;15.80;55.65
15998;BME280;8103;51.340;12.326;2023-04-28T09:55:24;100113.81;;;15.92;56.47
15998;BME280;8103;51.340;12.326;2023-04-28T09:57:57;100115.53;;;16.06;57.30
15998;BME280;8103;51.340;12.326;2023-04-28T10:04:26;100115.13;;;15.71;56.64
15998;BME280;8103;51.340;12.326;2023-04-28T10:06:57;100108.88;;;15.52;57.83
15998;BME280;8103;51.340;12.326;2023-04-28T10:09:24;100109.69;;;15.52;58.59
15998;BME280;8103;51.340;12.326;2023-04-28T10:11:53;100115.41;;;15.46;58.58
15998;BME280;8103;51.340;12.326;2023-04-28T10:14:20;100108.75;;;15.62;59.24
15998;BME280;8103;51.340;12.326;2023-04-28T10:16:48;100105.31;;;15.80;59.97
15998;BME280;8103;51.340;12.326;2023-04-28T10:19:17;100101.28;;;16.01;59.55
15998;BME280;8103;51.340;12.326;2023-04-28T10:25:24;100090.38;;;16.06;59.64
15998;BME280;8103;51.340;12.326;2023-04-28T10:27:52;100088.72;;;16.10;58.51
15998;BME280;8103;51.340;12.326;2023-04-28T10:30:22;100084.03;;;16.34;58.21
15998;BME280;8103;51.340;12.326;2023-04-28T10:33:24;100082.88;;;16.40;57.71
15998;BME280;8103;51.340;12.326;2023-04-28T10:35:56;100082.09;;;16.58;57.29
15998;BME280;8103;51.340;12.326;2023-04-28T10:42:52;100063.91;;;16.45;59.00
15998;BME280;8103;51.340;12.326;2023-04-28T10:56:24;100060.09;;;16.46;60.28
15998;BME280;8103;51.340;12.326;2023-04-28T10:58:53;100056.69;;;16.17;61.79
15998;BME280;8103;51.340;12.326;2023-04-28T11:03:52;100062.69;;;15.72;63.11
15998;BME280;8103;51.340;12.326;2023-04-28T11:06:40;100059.19;;;15.48;63.84
15998;BME280;8103;51.340;12.326;2023-04-28T11:12:05;100049.25;;;15.15;65.55
15998;BME280;8103;51.340;12.326;2023-04-28T11:14:38;100060.13;;;15.05;66.36
15998;BME280;8103;51.340;12.326;2023-04-28T11:17:10;100056.38;;;15.06;66.78
15998;BME280;8103;51.340;12.326;2023-04-28T11:19:44;100058.59;;;14.99;66.63
15998;BME280;8103;51.340;12.326;2023-04-28T11:22:19;100049.56;;;15.08;66.11
15998;BME280;8103;51.340;12.326;2023-04-28T11:25:01;100046.00;;;15.18;66.53
15998;BME280;8103;51.340;12.326;2023-04-28T11:27:32;100047.53;;;15.24;66.22
15998;BME280;8103;51.340;12.326;2023-04-28T11:30:00;100049.94;;;15.25;65.55
15998;BME280;8103;51.340;12.326;2023-04-28T11:32:31;100045.72;;;15.43;65.73
15998;BME280;8103;51.340;12.326;2023-04-28T11:34:58;100035.19;;;15.65;65.38
15998;BME280;8103;51.340;12.326;2023-04-28T11:37:28;100040.38;;;15.85;65.12
15998;BME280;8103;51.340;12.326;2023-04-28T11:39:55;100037.09;;;15.88;64.52
15998;BME280;8103;51.340;12.326;2023-04-28T11:46:31;100033.06;;;16.22;64.65
15998;BME280;8103;51.340;12.326;2023-04-28T11:49:04;100029.13;;;16.52;63.82
15998;BME280;8103;51.340;12.326;2023-04-28T11:51:36;100010.09;;;16.89;63.72
15998;BME280;8103;51.340;12.326;2023-04-28T11:54:07;100007.78;;;17.55;62.37
15998;BME280;8103;51.340;12.326;2023-04-28T11:56:38;99999.25;;;18.77;59.96
15998;BME280;8103;51.340;12.326;2023-04-28T12:02:48;100002.91;;;22.46;48.64
15998;BME280;8103;51.340;12.326;2023-04-28T12:05:16;99994.22;;;22.64;47.45
15998;BME280;8103;51.340;12.326;2023-04-28T12:07:47;99996.00;;;23.62;45.17
15998;BME280;8103;51.340;12.326;2023-04-28T12:10:16;99987.13;;;24.99;40.78
15998;BME280;8103;51.340;12.326;2023-04-28T12:16:51;99996.75;;;25.36;38.62
15998;BME280;8103;51.340;12.326;2023-04-28T12:19:18;99995.13;;;24.49;40.67
15998;BME280;8103;51.340;12.326;2023-04-28T12:22:06;99987.16;;;24.44;40.50
15998;BME280;8103;51.340;12.326;2023-04-28T12:24:34;99990.09;;;23.48;42.20
15998;BME280;8103;51.340;12.326;2023-04-28T12:27:19;99989.69;;;22.48;44.19
15998;BME280;8103;51.340;12.326;2023-04-28T12:33:52;99975.84;;;20.78;48.10
15998;BME280;8103;51.340;12.326;2023-04-28T12:36:19;99974.50;;;20.13;49.64
15998;BME280;8103;51.340;12.326;2023-04-28T12:38:48;99982.44;;;19.84;50.76
15998;BME280;8103;51.340;12.326;2023-04-28T12:41:15;99977.13;;;19.62;51.89
15998;BME280;8103;51.340;12.326;2023-04-28T12:43:42;99971.28;;;19.38;52.32
15998;BME280;8103;51.340;12.326;2023-04-28T12:46:10;99972.16;;;19.16;53.51
15998;BME280;8103;51.340;12.326;2023-04-28T12:48:40;99972.31;;;18.89;53.89
15998;BME280;8103;51.340;12.326;2023-04-28T12:55:13;99975.53;;;18.60;55.58
15998;BME280;8103;51.340;12.326;2023-04-28T12:57:41;99965.81;;;18.24;56.84
15998;BME280;8103;51.340;12.326;2023-04-28T13:00:08;99962.88;;;17.98;57.65
15998;BME280;8103;51.340;12.326;2023-04-28T13:02:36;99962.72;;;17.81;58.74
15998;BME280;8103;51.340;12.326;2023-04-28T13:05:10;99958.91;;;17.82;59.05
15998;BME280;8103;51.340;12.326;2023-04-28T13:07:40;99962.41;;;17.96;58.38
15998;BME280;8103;51.340;12.326;2023-04-28T13:10:08;99948.19;;;17.99;59.10
15998;BME280;8103;51.340;12.326;2023-04-28T13:12:35;99944.25;;;18.05;58.90
15998;BME280;8103;51.340;12.326;2023-04-28T13:15:03;99941.53;;;18.05;58.14
15998;BME280;8103;51.340;12.326;2023-04-28T13:17:30;99935.75;;;17.98;57.90
15998;BME280;8103;51.340;12.326;2023-04-28T13:19:57;99936.34;;;17.95;58.11
15998;BME280;8103;51.340;12.326;2023-04-28T13:22:25;99935.72;;;17.76;58.67
15998;BME280;8103;51.340;12.326;2023-04-28T13:24:52;99935.94;;;17.66;59.14
15998;BME280;8103;51.340;12.326;2023-04-28T13:27:18;99928.44;;;17.50;58.67
15998;BME280;8103;51.340;12.326;2023-04-28T13:29:46;99928.88;;;17.43;59.33
15998;BME280;8103;51.340;12.326;2023-04-28T13:32:13;99925.22;;;17.34;59.69
15998;BME280;8103;51.340;12.326;2023-04-28T13:34:39;99923.41;;;17.16;60.22
15998;BME280;8103;51.340;12.326;2023-04-28T13:37:06;99931.25;;;17.04;61.01
15998;BME280;8103;51.340;12.326;2023-04-28T13:39:34;99920.22;;;17.01;60.89
15998;BME280;8103;51.340;12.326;2023-04-28T13:42:01;99906.78;;;17.09;60.86
15998;BME280;8103;51.340;12.326;2023-04-28T13:44:28;99916.69;;;17.00;61.00
15998;BME280;8103;51.340;12.326;2023-04-28T13:46:55;99907.78;;;16.86;61.52
15998;BME280;8103;51.340;12.326;2023-04-28T13:49:22;99903.28;;;16.95;61.56
15998;BME280;8103;51.340;12.326;2023-04-28T13:51:49;99907.56;;;16.96;61.17
15998;BME280;8103;51.340;12.326;2023-04-28T13:54:16;99891.81;;;16.98;61.31
15998;BME280;8103;51.340;12.326;2023-04-28T13:56:43;99893.91;;;17.01;61.37
15998;BME280;8103;51.340;12.326;2023-04-28T13:59:10;99895.50;;;17.29;60.90
15998;BME280;8103;51.340;12.326;2023-04-28T14:01:37;99895.72;;;17.46;60.32
15998;BME280;8103;51.340;12.326;2023-04-28T14:04:03;99886.06;;;17.40;60.68
15998;BME280;8103;51.340;12.326;2023-04-28T14:06:30;99886.06;;;17.40;60.27
15998;BME280;8103;51.340;12.326;2023-04-28T14:08:59;99887.28;;;17.48;60.10
15998;BME280;8103;51.340;12.326;2023-04-28T14:11:27;99885.50;;;17.43;59.69
15998;BME280;8103;51.340;12.326;2023-04-28T14:13:53;99888.25;;;17.38;58.49
15998;BME280;8103;51.340;12.326;2023-04-28T14:16:20;99884.75;;;17.51;58.20
15998;BME280;8103;51.340;12.326;2023-04-28T14:22:53;99879.16;;;17.34;58.34
15998;BME280;8103;51.340;12.326;2023-04-28T14:25:21;99871.72;;;17.26;58.90
15998;BME280;8103;51.340;12.326;2023-04-28T14:27:49;99875.84;;;17.24;58.96
15998;BME280;8103;51.340;12.326;2023-04-28T14:30:17;99869.59;;;17.23;59.26
15998;BME280;8103;51.340;12.326;2023-04-28T14:32:46;99870.13;;;17.25;59.17